Time;durP1;ratioP1;P1;durP2;ratioP2;P2;SDS_P1;SDS_P2;PMS_P1;PMS_P2;Temp;Humidity;BMP_temperature;BMP_pressure;BME280_temperature;BME280_humidity;BME280_pressure;Samples;Min_cycle;Max_cycle;Signal;HPM_P1;HPM_P2
2022/10/22 00:00:37;;;;;;;2.70;0.90;;;;;;;13.59;100.00;154849.59;4976073;28;20584;-89
2022/10/22 00:03:04;;;;;;;2.27;0.60;;;;;;;13.57;100.00;154844.41;4990513;28;20533;-89
2022/10/22 00:05:30;;;;;;;1.20;0.60;;;;;;;13.53;100.00;154834.06;4976355;28;21226;-89
2022/10/22 00:07:57;;;;;;;0.83;0.43;;;;;;;13.48;100.00;154821.03;4992236;28;20509;-89
2022/10/22 00:10:24;;;;;;;4.07;0.80;;;;;;;13.47;100.00;154818.47;4993650;28;20453;-89
2022/10/22 00:12:50;;;;;;;1.93;0.63;;;;;;;13.46;100.00;154815.84;4958182;28;20469;-89
2022/10/22 00:15:17;;;;;;;2.90;0.70;;;;;;;13.48;100.00;154821.03;4991859;28;20552;-88
2022/10/22 00:17:45;;;;;;;1.90;0.67;;;;;;;13.45;100.00;154813.28;4981047;28;20454;-88
2022/10/22 00:20:12;;;;;;;1.10;0.60;;;;;;;13.43;100.00;154810.66;4991298;28;20556;-88
2022/10/22 00:22:39;;;;;;;0.97;0.50;;;;;;;13.40;100.00;154802.88;4975749;28;20434;-89
2022/10/22 00:25:06;;;;;;;2.60;0.60;;;;;;;13.37;100.00;154795.09;4990882;28;20556;-88
2022/10/22 00:27:33;;;;;;;1.43;0.60;;;;;;;13.39;100.00;154799.00;4991528;28;20820;-88
2022/10/22 00:29:59;;;;;;;1.00;0.53;;;;;;;13.39;100.00;154800.31;4990855;28;20433;-89
2022/10/22 00:32:26;;;;;;;2.53;0.60;;;;;;;13.36;100.00;154792.53;4975111;28;20469;-88
2022/10/22 00:34:54;;;;;;;1.83;0.70;;;;;;;13.37;100.00;154793.78;4975387;28;20461;-89
2022/10/22 00:37:21;;;;;;;1.33;0.60;;;;;;;13.35;100.00;154788.59;4975155;28;20452;-88
2022/10/22 00:39:47;;;;;;;1.10;0.70;;;;;;;13.34;100.00;154787.28;4991121;28;20485;-88
2022/10/22 00:42:19;;;;;;;1.77;0.90;;;;;;;13.35;100.00;154789.91;4998760;28;20429;-88
2022/10/22 00:45:15;;;;;;;2.70;0.50;;;;;;;13.31;100.00;154779.56;4983773;28;20456;-88
2022/10/22 00:47:44;;;;;;;1.60;0.50;;;;;;;13.34;100.00;154787.28;4978750;28;20452;-89
2022/10/22 00:50:14;;;;;;;1.07;0.67;;;;;;;13.31;100.00;154779.56;4992921;28;20501;-88
2022/10/22 00:52:41;;;;;;;3.13;0.57;;;;;;;13.30;100.00;154776.94;4989330;28;20565;-88
2022/10/22 00:55:08;;;;;;;1.83;0.80;;;;;;;13.27;100.00;154769.13;4966340;28;20503;-88
2022/10/22 00:57:36;;;;;;;1.33;0.50;;;;;;;13.24;100.00;154761.34;4937248;29;20427;-88
2022/10/22 01:00:04;;;;;;;2.47;1.23;;;;;;;13.30;100.00;154775.63;4960754;28;20823;-89
2022/10/22 01:02:31;;;;;;;1.10;0.60;;;;;;;13.26;100.00;154766.53;4971421;28;20461;-89
2022/10/22 01:04:58;;;;;;;3.80;0.70;;;;;;;13.32;100.00;154782.13;4971940;28;20454;-89
2022/10/22 01:07:26;;;;;;;1.97;0.60;;;;;;;13.23;100.00;154758.78;4972109;28;20449;-89
2022/10/22 01:10:01;;;;;;;1.20;0.60;;;;;;;13.23;100.00;154758.78;4954335;28;20461;-89
2022/10/22 01:12:35;;;;;;;1.93;0.80;;;;;;;13.23;100.00;154758.78;4981863;28;20581;-88
2022/10/22 01:15:09;;;;;;;3.20;1.10;;;;;;;13.19;100.00;154747.06;4980129;28;20515;-88
2022/10/22 01:17:41;;;;;;;1.40;0.60;;;;;;;13.20;100.00;154751.00;4961899;28;20447;-88
2022/10/22 01:20:17;;;;;;;1.20;0.50;;;;;;;13.22;100.00;154756.19;4970697;28;20456;-88
2022/10/22 01:22:53;;;;;;;2.70;0.60;;;;;;;13.17;100.00;154743.22;4991464;28;20441;-89
2022/10/22 01:25:28;;;;;;;0.87;0.53;;;;;;;13.15;100.00;154738.03;4963438;28;20438;-88
2022/10/22 01:28:02;;;;;;;1.90;0.80;;;;;;;13.15;100.00;154738.03;4973333;28;20548;-89
2022/10/22 01:30:30;;;;;;;2.40;0.70;;;;;;;13.17;100.00;154741.91;4939732;28;20466;-89
2022/10/22 01:33:01;;;;;;;1.23;0.70;;;;;;;13.12;100.00;154730.22;4969358;28;20985;-89
2022/10/22 01:35:29;;;;;;;1.23;0.67;;;;;;;13.12;100.00;154730.22;4973386;28;20427;-88
2022/10/22 01:37:58;;;;;;;1.10;0.70;;;;;;;13.09;100.00;154722.44;4970172;28;20850;-89
2022/10/22 01:40:26;;;;;;;1.13;0.60;;;;;;;13.09;100.00;154721.13;4969694;28;20457;-89
2022/10/22 01:43:00;;;;;;;1.20;0.67;;;;;;;13.11;100.00;154727.63;4955081;28;20485;-89
2022/10/22 01:45:30;;;;;;;2.37;1.30;;;;;;;13.05;100.00;154710.72;4954573;28;20937;-89
2022/10/22 01:48:03;;;;;;;1.30;0.90;;;;;;;13.08;100.00;154719.81;4969157;28;20466;-90
2022/10/22 01:50:57;;;;;;;3.83;1.07;;;;;;;13.08;100.00;154718.56;4972768;28;20775;-90
2022/10/22 01:53:29;;;;;;;1.63;1.00;;;;;;;13.09;100.00;154721.13;4969687;28;20505;-89
2022/10/22 01:56:10;;;;;;;1.40;0.87;;;;;;;13.10;100.00;154725.06;4953215;28;20489;-90
2022/10/22 01:58:43;;;;;;;1.30;0.70;;;;;;;13.08;100.00;154718.56;4959833;28;21019;-89
2022/10/22 02:01:16;;;;;;;1.20;0.80;;;;;;;13.03;100.00;154706.81;4970663;28;20433;-89
2022/10/22 02:03:46;;;;;;;1.93;0.70;;;;;;;13.04;100.00;154709.44;4970650;28;20831;-90
2022/10/22 02:06:17;;;;;;;3.07;0.80;;;;;;;13.10;100.00;154723.75;4964940;28;20948;-90
2022/10/22 02:08:44;;;;;;;1.90;1.00;;;;;;;13.09;100.00;154722.44;4957476;28;20450;-90
2022/10/22 02:11:12;;;;;;;1.47;0.77;;;;;;;13.05;100.00;154712.00;4972716;28;20547;-90
2022/10/22 02:13:41;;;;;;;1.33;0.50;;;;;;;13.07;100.00;154717.25;4970632;28;20565;-89
2022/10/22 02:16:13;;;;;;;0.93;0.60;;;;;;;13.07;100.00;154715.97;4971321;28;20486;-90
2022/10/22 02:18:41;;;;;;;1.20;0.60;;;;;;;13.11;100.00;154726.31;4971170;28;20775;-89
2022/10/22 02:21:08;;;;;;;1.20;0.70;;;;;;;13.07;100.00;154717.25;4954183;28;20430;-89
2022/10/22 02:23:35;;;;;;;1.20;0.80;;;;;;;12.98;100.00;154693.84;4969741;28;20561;-90
2022/10/22 02:26:06;;;;;;;1.67;0.67;;;;;;;13.02;100.00;154704.25;4936543;28;20459;-89
2022/10/22 02:28:37;;;;;;;1.37;0.67;;;;;;;13.00;100.00;154699.03;4954499;28;20538;-89
2022/10/22 02:31:07;;;;;;;0.90;0.47;;;;;;;13.02;100.00;154702.94;4970861;28;20441;-89
2022/10/22 02:33:38;;;;;;;1.47;0.57;;;;;;;13.01;100.00;154700.31;4968692;28;20471;-90
2022/10/22 02:36:06;;;;;;;2.50;0.80;;;;;;;12.97;100.00;154691.28;4970958;28;21012;-89
2022/10/22 02:38:34;;;;;;;1.50;0.60;;;;;;;12.97;100.00;154689.97;4989114;28;20445;-89
2022/10/22 02:41:01;;;;;;;1.93;0.70;;;;;;;12.94;100.00;154682.19;4974898;28;20553;-89
2022/10/22 02:43:29;;;;;;;1.17;0.57;;;;;;;12.94;100.00;154683.50;4974626;28;20473;-90
2022/10/22 02:45:55;;;;;;;1.40;0.80;;;;;;;12.95;100.00;154686.06;4958032;28;20434;-90
2022/10/22 02:48:22;;;;;;;1.10;0.67;;;;;;;12.99;100.00;154696.47;4976150;28;20534;-90
2022/10/22 02:50:50;;;;;;;1.63;0.57;;;;;;;12.96;100.00;154688.66;4974558;28;20450;-90
2022/10/22 02:53:17;;;;;;;2.00;0.80;;;;;;;12.95;100.00;154686.06;4958440;28;20482;-89
2022/10/22 02:55:43;;;;;;;2.13;1.20;;;;;;;12.95;100.00;154686.06;4973361;28;20482;-89
2022/10/22 02:58:12;;;;;;;1.67;0.73;;;;;;;12.95;100.00;154686.06;4974492;28;20543;-89
2022/10/22 03:00:39;;;;;;;1.83;0.70;;;;;;;12.96;100.00;154687.34;4987775;28;20450;-89
2022/10/22 03:03:06;;;;;;;0.87;0.47;;;;;;;13.01;100.00;154701.63;4970392;28;20517;-89
2022/10/22 03:05:32;;;;;;;1.60;0.87;;;;;;;12.95;100.00;154686.06;4957723;28;20480;-89
2022/10/22 03:08:00;;;;;;;1.67;0.50;;;;;;;12.94;100.00;154683.50;4966662;28;20465;-89
2022/10/22 03:10:27;;;;;;;3.23;0.80;;;;;;;12.95;100.00;154684.75;4960387;29;20439;-89
2022/10/22 03:12:54;;;;;;;1.90;0.70;;;;;;;12.95;100.00;154686.06;4986275;28;20537;-89
2022/10/22 03:15:21;;;;;;;1.63;0.70;;;;;;;12.96;100.00;154688.66;4969295;28;20482;-89
2022/10/22 03:17:48;;;;;;;1.50;0.80;;;;;;;12.95;100.00;154686.06;4973295;28;20485;-90
2022/10/22 03:20:14;;;;;;;2.80;0.80;;;;;;;12.93;100.00;154679.56;4957621;28;20438;-89
2022/10/22 03:22:42;;;;;;;1.40;0.90;;;;;;;12.95;100.00;154686.06;4950890;28;20466;-89
2022/10/22 03:25:13;;;;;;;2.37;0.67;;;;;;;12.95;100.00;154684.75;4956280;28;20457;-89
2022/10/22 03:27:40;;;;;;;1.23;0.57;;;;;;;12.92;100.00;154678.25;4973270;28;21036;-89
2022/10/22 03:30:08;;;;;;;1.20;0.90;;;;;;;12.91;100.00;154675.69;4955640;28;20434;-89
2022/10/22 03:32:35;;;;;;;0.90;0.50;;;;;;;12.95;100.00;154686.06;4958515;28;20451;-89
2022/10/22 03:35:01;;;;;;;1.50;0.67;;;;;;;12.89;100.00;154670.53;4954495;28;20538;-89
2022/10/22 03:37:29;;;;;;;3.93;0.70;;;;;;;12.90;100.00;154673.09;4954279;29;20454;-89
2022/10/22 03:39:55;;;;;;;1.40;0.80;;;;;;;12.89;100.00;154670.53;4963810;28;20442;-89
2022/10/22 03:42:24;;;;;;;1.73;0.60;;;;;;;12.91;100.00;154674.41;4970836;28;21012;-89
2022/10/22 03:44:50;;;;;;;1.10;0.60;;;;;;;12.92;100.00;154677.00;4975279;28;20461;-88
2022/10/22 03:47:17;;;;;;;1.33;0.80;;;;;;;12.88;100.00;154666.59;4957139;28;20486;-89
2022/10/22 03:49:44;;;;;;;2.00;0.70;;;;;;;12.91;100.00;154674.41;4965641;28;20545;-89
2022/10/22 03:52:12;;;;;;;2.87;0.60;;;;;;;12.90;100.00;154671.78;4973757;28;20438;-89
2022/10/22 03:54:41;;;;;;;1.53;1.03;;;;;;;12.86;100.00;154662.72;4974325;28;20557;-89
2022/10/22 03:57:08;;;;;;;1.23;0.90;;;;;;;12.88;100.00;154667.91;4975712;28;20548;-89
2022/10/22 03:59:37;;;;;;;2.13;0.80;;;;;;;12.87;100.00;154665.28;4975644;28;20960;-89
2022/10/22 04:02:04;;;;;;;1.17;0.70;;;;;;;12.85;100.00;154660.13;4974624;28;20537;-89
2022/10/22 04:04:31;;;;;;;1.23;0.70;;;;;;;12.81;100.00;154651.03;5010385;28;20444;-89
2022/10/22 04:06:57;;;;;;;2.63;0.97;;;;;;;12.81;100.00;154649.75;4993756;28;20804;-88
2022/10/22 04:09:24;;;;;;;1.60;0.70;;;;;;;12.80;100.00;154647.16;4967366;28;20509;-90
2022/10/22 04:11:51;;;;;;;1.60;0.73;;;;;;;12.78;100.00;154641.97;4976750;28;20901;-90
2022/10/22 04:14:18;;;;;;;1.10;0.80;;;;;;;12.78;100.00;154641.97;4992214;28;20565;-91
2022/10/22 04:16:46;;;;;;;2.83;0.80;;;;;;;12.75;100.00;154635.50;4975586;28;20429;-90
2022/10/22 04:19:13;;;;;;;1.93;0.80;;;;;;;12.75;100.00;154635.50;4972438;28;20461;-90
2022/10/22 04:21:40;;;;;;;1.43;0.90;;;;;;;12.74;100.00;154631.56;4976705;28;20460;-90
2022/10/22 04:24:06;;;;;;;1.30;0.87;;;;;;;12.77;100.00;154639.38;4974978;28;20437;-90
2022/10/22 04:26:33;;;;;;;4.50;1.00;;;;;;;12.72;100.00;154626.41;4991922;28;20556;-90
2022/10/22 04:29:00;;;;;;;1.50;0.70;;;;;;;12.73;100.00;154630.28;4994259;28;20497;-89
2022/10/22 04:31:27;;;;;;;1.40;0.77;;;;;;;12.74;100.00;154631.56;4993491;28;20533;-90
2022/10/22 04:33:56;;;;;;;1.23;0.73;;;;;;;12.73;100.00;154629.00;4975872;28;20500;-90
2022/10/22 04:36:23;;;;;;;1.47;0.93;;;;;;;12.71;100.00;154623.78;4976013;28;20481;-90
2022/10/22 04:38:53;;;;;;;2.50;0.90;;;;;;;12.71;100.00;154623.78;4976908;28;20947;-89
2022/10/22 04:41:22;;;;;;;2.70;1.00;;;;;;;12.70;100.00;154622.53;4975874;28;20927;-90
2022/10/22 04:43:49;;;;;;;2.00;0.70;;;;;;;12.65;100.00;154609.56;4991853;28;20441;-90
2022/10/22 04:46:17;;;;;;;2.83;1.10;;;;;;;12.69;100.00;154618.63;4977263;28;20456;-78
2022/10/22 04:48:44;;;;;;;1.40;0.63;;;;;;;12.67;100.00;154614.75;4979118;28;20541;-78
2022/10/22 04:51:14;;;;;;;1.73;1.00;;;;;;;12.69;100.00;154618.63;4974796;28;20437;-78
2022/10/22 04:53:41;;;;;;;2.30;0.70;;;;;;;12.69;100.00;154618.63;4974502;28;20825;-78
2022/10/22 04:56:09;;;;;;;1.73;0.80;;;;;;;12.67;100.00;154614.75;4958624;28;20577;-78
2022/10/22 04:58:36;;;;;;;1.70;0.70;;;;;;;12.68;100.00;154617.31;4954134;28;20527;-78
2022/10/22 05:01:10;;;;;;;1.00;0.67;;;;;;;12.63;100.00;154604.34;4954115;28;20538;-77
2022/10/22 05:03:36;;;;;;;1.83;0.70;;;;;;;12.63;100.00;154603.03;4972724;28;20507;-79
2022/10/22 05:06:03;;;;;;;3.33;0.80;;;;;;;12.69;100.00;154618.63;4975287;28;20545;-77
2022/10/22 05:08:31;;;;;;;1.97;0.70;;;;;;;12.63;100.00;154603.03;4948032;29;20449;-78
2022/10/22 05:10:58;;;;;;;1.40;0.80;;;;;;;12.63;100.00;154604.34;4968592;28;20439;-78
2022/10/22 05:13:25;;;;;;;3.80;0.73;;;;;;;12.62;100.00;154600.47;4956375;28;20980;-79
2022/10/22 05:15:52;;;;;;;1.57;0.87;;;;;;;12.64;100.00;154605.66;4963904;28;20887;-78
2022/10/22 05:18:18;;;;;;;1.13;0.73;;;;;;;12.63;100.00;154603.03;4961768;28;20435;-77
2022/10/22 05:20:45;;;;;;;1.60;0.70;;;;;;;12.63;100.00;154604.34;4976246;28;20466;-76
2022/10/22 05:23:12;;;;;;;1.73;1.00;;;;;;;12.66;100.00;154610.81;4955335;28;20536;-76
2022/10/22 05:25:40;;;;;;;1.10;0.60;;;;;;;12.65;100.00;154608.25;4940100;28;20493;-78
2022/10/22 05:28:06;;;;;;;1.47;0.70;;;;;;;12.62;100.00;154600.47;4956934;28;20447;-78
2022/10/22 05:30:33;;;;;;;1.53;1.10;;;;;;;12.59;100.00;154594.00;4956034;28;20447;-77
2022/10/22 05:33:00;;;;;;;1.07;0.60;;;;;;;12.56;100.00;154584.91;4960236;28;20508;-78
2022/10/22 05:35:26;;;;;;;1.50;1.00;;;;;;;12.56;100.00;154584.91;4960445;28;20473;-77
2022/10/22 05:37:53;;;;;;;1.10;0.67;;;;;;;12.52;100.00;154574.53;4955025;28;20968;-77
2022/10/22 05:40:20;;;;;;;1.57;1.10;;;;;;;12.52;100.00;154575.78;4974659;28;20480;-77
2022/10/22 05:42:48;;;;;;;1.10;0.60;;;;;;;12.50;100.00;154570.63;4991380;28;21003;-77
2022/10/22 05:45:14;;;;;;;2.07;0.80;;;;;;;12.54;100.00;154579.72;4964249;28;20482;-78
2022/10/22 05:47:41;;;;;;;2.00;0.80;;;;;;;12.53;100.00;154577.09;4954357;28;20462;-77
2022/10/22 05:50:08;;;;;;;1.40;0.83;;;;;;;12.54;100.00;154579.72;4960715;28;20451;-78
2022/10/22 05:52:35;;;;;;;1.53;0.87;;;;;;;12.54;100.00;154581.03;4970117;28;20462;-78
2022/10/22 05:55:02;;;;;;;0.97;0.50;;;;;;;12.55;100.00;154582.34;4975390;28;20493;-88
2022/10/22 05:57:28;;;;;;;1.30;0.50;;;;;;;12.54;100.00;154579.72;4973768;28;20460;-88
2022/10/22 05:59:56;;;;;;;3.73;0.80;;;;;;;12.53;100.00;154577.09;4991232;28;20827;-89
2022/10/22 06:02:23;;;;;;;1.80;1.40;;;;;;;12.53;100.00;154578.41;4992161;28;20444;-88
2022/10/22 06:04:50;;;;;;;1.10;0.60;;;;;;;12.56;100.00;154586.19;4978376;28;20544;-88
2022/10/22 06:07:16;;;;;;;1.20;0.60;;;;;;;12.63;100.00;154603.03;4980562;28;20464;-88
2022/10/22 06:09:43;;;;;;;1.23;0.67;;;;;;;12.61;100.00;154597.84;4975899;28;20452;-88
2022/10/22 06:12:12;;;;;;;1.57;0.77;;;;;;;12.63;100.00;154603.03;4993176;28;20464;-88
2022/10/22 06:14:39;;;;;;;1.13;0.73;;;;;;;12.62;100.00;154600.47;4990703;28;21070;-88
2022/10/22 06:17:07;;;;;;;2.60;0.80;;;;;;;12.62;100.00;154600.47;5001424;28;20975;-88
2022/10/22 06:19:34;;;;;;;1.10;0.70;;;;;;;12.61;100.00;154599.16;4996006;28;20516;-88
2022/10/22 06:22:01;;;;;;;2.17;0.70;;;;;;;12.62;100.00;154600.47;4978139;28;20473;-88
2022/10/22 06:24:27;;;;;;;2.70;0.87;;;;;;;12.66;100.00;154612.13;4994076;28;20442;-89
2022/10/22 06:26:54;;;;;;;1.00;0.60;;;;;;;12.65;100.00;154609.56;4981492;28;20449;-88
2022/10/22 06:29:21;;;;;;;2.70;0.97;;;;;;;12.67;100.00;154613.44;4994646;28;20485;-88
2022/10/22 06:31:48;;;;;;;1.10;0.67;;;;;;;12.66;100.00;154612.13;4992460;28;20457;-88
2022/10/22 06:34:17;;;;;;;1.53;0.80;;;;;;;12.67;100.00;154613.44;4973817;28;20466;-88
2022/10/22 06:36:44;;;;;;;3.17;0.70;;;;;;;12.70;100.00;154621.22;4958625;28;20446;-88
2022/10/22 06:39:12;;;;;;;2.90;0.80;;;;;;;12.70;100.00;154621.22;4975848;28;20511;-88
2022/10/22 06:41:38;;;;;;;1.23;0.77;;;;;;;12.71;100.00;154625.09;4975598;28;20462;-88
2022/10/22 06:44:05;;;;;;;1.87;0.80;;;;;;;12.70;100.00;154621.22;4997184;28;20491;-88
2022/10/22 06:46:32;;;;;;;1.50;0.90;;;;;;;12.71;100.00;154623.78;4978132;28;20809;-88
2022/10/22 06:49:01;;;;;;;1.83;0.80;;;;;;;12.77;100.00;154639.38;4976116;28;20956;-88
2022/10/22 06:51:29;;;;;;;1.60;1.07;;;;;;;12.77;100.00;154639.38;4977831;28;20444;-88
2022/10/22 06:53:56;;;;;;;1.50;0.67;;;;;;;12.78;100.00;154643.28;4977144;28;20488;-88
2022/10/22 06:56:25;;;;;;;1.33;0.70;;;;;;;12.79;100.00;154644.53;4946876;28;20484;-88
2022/10/22 06:58:53;;;;;;;1.20;0.83;;;;;;;12.82;100.00;154652.31;4962301;28;20488;-88
2022/10/22 07:01:23;;;;;;;1.23;0.63;;;;;;;12.82;100.00;154653.63;4943389;28;20492;-88
2022/10/22 07:03:50;;;;;;;1.10;0.80;;;;;;;12.82;100.00;154652.31;4940950;28;20441;-88
2022/10/22 07:06:17;;;;;;;1.10;0.90;;;;;;;12.85;100.00;154660.13;4972632;28;20446;-89
2022/10/22 07:08:45;;;;;;;2.53;1.10;;;;;;;12.85;100.00;154660.13;4969895;28;20933;-89
2022/10/22 07:11:24;;;;;;;1.83;1.00;;;;;;;12.86;100.00;154662.72;4973639;28;20459;-89
2022/10/22 07:14:00;;;;;;;1.77;1.17;;;;;;;12.87;100.00;154665.28;4957060;28;20449;-77
2022/10/22 07:16:26;;;;;;;1.83;0.97;;;;;;;12.93;100.00;154680.88;4973070;28;20454;-77
2022/10/22 07:18:53;;;;;;;1.50;1.20;;;;;;;12.95;100.00;154686.06;4975439;28;20427;-78
2022/10/22 07:21:20;;;;;;;1.50;0.97;;;;;;;12.94;100.00;154683.50;4977542;28;20515;-77
2022/10/22 07:23:48;;;;;;;1.90;1.50;;;;;;;12.94;100.00;154683.50;4964101;28;20540;-77
2022/10/22 07:26:16;;;;;;;1.93;1.43;;;;;;;12.96;100.00;154688.66;4973841;28;20457;-77
2022/10/22 07:28:43;;;;;;;2.07;1.60;;;;;;;12.97;100.00;154691.28;4964018;28;20807;-77
2022/10/22 07:31:12;;;;;;;2.23;1.30;;;;;;;13.03;100.00;154706.81;4976632;28;20432;-77
2022/10/22 07:33:38;;;;;;;2.47;1.50;;;;;;;13.04;100.00;154709.44;4972626;28;20509;-77
2022/10/22 07:36:07;;;;;;;2.47;1.23;;;;;;;13.05;100.00;154712.00;4970401;28;20561;-89
2022/10/22 07:38:35;;;;;;;2.63;1.40;;;;;;;13.08;100.00;154718.56;4969616;28;20825;-89
2022/10/22 07:41:03;;;;;;;3.37;1.07;;;;;;;13.07;100.00;154715.97;4973668;28;20485;-89
2022/10/22 07:43:30;;;;;;;3.33;1.10;;;;;;;13.08;100.00;154719.81;4972683;28;20933;-89
2022/10/22 07:45:56;;;;;;;2.23;1.10;;;;;;;13.12;100.00;154730.22;4955103;28;20450;-89
2022/10/22 07:48:23;;;;;;;6.53;1.40;;;;;;;13.17;100.00;154743.22;4970289;28;20501;-89
2022/10/22 07:50:51;;;;;;;1.90;1.00;;;;;;;13.23;100.00;154757.47;4973811;28;20485;-89
2022/10/22 07:53:18;;;;;;;4.30;1.20;;;;;;;13.25;100.00;154762.66;4948025;28;20540;-89
2022/10/22 07:55:48;;;;;;;3.77;0.90;;;;;;;13.25;100.00;154763.97;4966879;28;20479;-89
2022/10/22 07:58:16;;;;;;;2.60;1.10;;;;;;;13.31;100.00;154779.56;4938150;29;20526;-89
2022/10/22 08:00:42;;;;;;;2.20;1.10;;;;;;;13.34;100.00;154787.28;4962364;28;20453;-89
2022/10/22 08:03:11;;;;;;;2.60;1.00;;;;;;;13.43;100.00;154809.38;4971490;28;20472;-89
2022/10/22 08:05:38;;;;;;;2.23;1.00;;;;;;;13.44;100.00;154811.97;4965588;28;20517;-88
2022/10/22 08:08:05;;;;;;;2.90;0.80;;;;;;;13.49;100.00;154824.94;4955913;28;20957;-88
2022/10/22 08:10:32;;;;;;;1.87;0.80;;;;;;;13.53;100.00;154835.31;4956159;28;20497;-89
2022/10/22 08:12:58;;;;;;;1.57;1.00;;;;;;;13.58;100.00;154848.28;4975120;28;20529;-89
2022/10/22 08:15:26;;;;;;;2.33;1.10;;;;;;;13.67;100.00;154870.34;4971336;28;20509;-76
2022/10/22 08:17:53;;;;;;;2.63;1.17;;;;;;;13.66;100.00;154867.78;4972916;28;20447;-77
2022/10/22 08:20:20;;;;;;;1.40;0.90;;;;;;;13.73;100.00;154887.25;4953727;28;20816;-77
2022/10/22 08:22:47;;;;;;;1.70;1.00;;;;;;;13.79;100.00;154901.53;4970046;28;20464;-77
2022/10/22 08:25:14;;;;;;;2.10;1.20;;;;;;;13.83;100.00;154911.91;4971326;28;20446;-77
2022/10/22 08:27:41;;;;;;;1.30;0.83;;;;;;;13.90;100.00;154930.06;4969841;28;20553;-77
2022/10/22 08:30:09;;;;;;;2.90;1.37;;;;;;;13.95;100.00;154944.34;4969747;28;20888;-77
2022/10/22 08:32:41;;;;;;;1.37;1.07;;;;;;;13.97;100.00;154949.56;4959928;28;20450;-77
2022/10/22 08:35:07;;;;;;;1.20;1.03;;;;;;;14.02;100.00;154961.25;4972090;28;20462;-77
2022/10/22 08:37:34;;;;;;;2.27;1.13;;;;;;;14.02;100.00;154961.25;4944516;29;20447;-78
2022/10/22 08:40:01;;;;;;;1.80;1.07;;;;;;;13.99;100.00;154954.75;4954509;28;20446;-76
2022/10/22 08:43:14;;;;;;;1.50;1.03;;;;;;;13.98;100.00;154950.81;4939085;28;20941;-76
2022/10/22 08:45:43;;;;;;;1.70;1.10;;;;;;;14.13;100.00;154989.81;4954394;28;20964;-76
2022/10/22 08:48:25;;;;;;;1.87;0.83;;;;;;;14.25;100.00;155019.66;4956619;28;20462;-77
2022/10/22 08:50:52;;;;;;;1.83;1.20;;;;;;;14.37;100.00;155050.88;4954341;29;20799;-76
2022/10/22 08:53:24;;;;;;;2.07;0.90;;;;;;;14.48;100.00;155080.72;4954220;28;20443;-77
2022/10/22 08:55:53;;;;;;;1.40;1.00;;;;;;;14.57;100.00;155104.13;4964323;28;20536;-76
2022/10/22 08:58:25;;;;;;;2.67;1.10;;;;;;;14.71;100.00;155137.91;4958667;28;20951;-76
2022/10/22 09:00:56;;;;;;;1.83;1.00;;;;;;;14.80;100.00;155162.56;4976326;28;20525;-77
2022/10/22 09:03:36;;;;;;;1.53;1.20;;;;;;;14.86;100.00;155176.84;4943992;28;20512;-76
2022/10/22 09:06:09;;;;;;;1.90;1.20;;;;;;;14.89;100.00;155185.97;4974222;28;20503;-77
2022/10/22 09:08:37;;;;;;;2.03;1.00;;;;;;;14.96;100.00;155204.13;4959395;28;20897;-76
2022/10/22 09:11:11;;;;;;;1.60;0.90;;;;;;;15.06;100.00;155228.84;4984605;28;20441;-77
2022/10/22 09:13:39;;;;;;;2.23;1.00;;;;;;;15.08;100.00;155235.34;4953339;28;20833;-76
2022/10/22 09:16:15;;;;;;;4.40;1.20;;;;;;;15.12;100.00;155244.41;4985682;28;20473;-78
2022/10/22 09:18:47;;;;;;;1.60;0.83;;;;;;;15.18;100.00;155260.00;4990750;28;20438;-78
2022/10/22 09:21:25;;;;;;;1.53;1.00;;;;;;;15.22;100.00;155271.69;4991204;28;20469;-78
2022/10/22 09:23:58;;;;;;;1.60;0.90;;;;;;;15.25;100.00;155278.19;4971277;28;20520;-77
2022/10/22 09:26:28;;;;;;;1.63;1.20;;;;;;;15.33;100.00;155298.97;4984158;28;20526;-79
2022/10/22 09:28:54;;;;;;;3.83;1.27;;;;;;;15.38;100.00;155310.72;5019167;28;20519;-78
2022/10/22 09:31:21;;;;;;;1.70;1.07;;;;;;;15.43;100.00;155325.00;4977199;28;20464;-78
2022/10/22 09:33:51;;;;;;;3.73;1.10;;;;;;;15.51;100.00;155344.56;4973540;28;20459;-77
2022/10/22 09:36:20;;;;;;;1.90;1.20;;;;;;;15.55;100.00;155356.25;5000368;28;20801;-78
2022/10/22 09:38:48;;;;;;;2.27;1.10;;;;;;;15.59;100.00;155366.66;4991027;28;20457;-77
2022/10/22 09:41:16;;;;;;;1.60;1.20;;;;;;;15.56;100.00;155358.84;4987669;28;20458;-77
2022/10/22 09:43:42;;;;;;;1.40;1.10;;;;;;;15.56;100.00;155358.84;4990341;28;20445;-77
2022/10/22 09:46:15;;;;;;;1.10;0.80;;;;;;;15.64;100.00;155378.34;4978544;28;20457;-78
2022/10/22 09:48:43;;;;;;;2.50;1.00;;;;;;;15.74;100.00;155405.66;4986157;28;20560;-77
2022/10/22 09:51:16;;;;;;;1.90;0.90;;;;;;;15.85;100.00;155432.94;4972157;28;20504;-77
2022/10/22 09:53:43;;;;;;;1.90;1.20;;;;;;;15.93;100.00;155452.44;4989484;28;20848;-77
2022/10/22 09:56:17;;;;;;;1.40;0.70;;;;;;;15.90;100.00;155445.94;4989394;28;20881;-77
2022/10/22 09:58:48;;;;;;;2.00;1.07;;;;;;;16.01;100.00;155474.56;4975735;28;20437;-77
2022/10/22 10:01:20;;;;;;;2.63;1.30;;;;;;;15.99;100.00;155469.31;4990071;28;20992;-77
2022/10/22 10:03:48;;;;;;;1.73;1.17;;;;;;;15.98;100.00;155466.75;4991174;28;20517;-77
2022/10/22 10:06:19;;;;;;;2.30;1.47;;;;;;;15.98;100.00;155466.75;4977614;28;20480;-77
2022/10/22 10:08:45;;;;;;;1.30;0.87;;;;;;;16.00;100.00;155470.63;4994656;28;20449;-77
2022/10/22 10:11:19;;;;;;;3.10;1.53;;;;;;;16.07;100.00;155488.88;4991048;28;20476;-77
2022/10/22 10:13:52;;;;;;;2.93;1.57;;;;;;;16.08;100.00;155492.75;4974469;28;20422;-78
2022/10/22 10:16:30;;;;;;;1.43;1.00;;;;;;;16.17;100.00;155514.88;4972176;28;20492;-78
2022/10/22 10:19:06;;;;;;;1.60;1.20;;;;;;;16.04;100.00;155482.38;4972957;28;20449;-77
2022/10/22 10:21:39;;;;;;;1.90;0.80;;;;;;;15.99;100.00;155469.31;4992809;28;20433;-77
2022/10/22 10:24:14;;;;;;;1.33;0.80;;;;;;;16.06;100.00;155486.25;4989300;28;20462;-77
2022/10/22 10:26:47;;;;;;;2.27;1.17;;;;;;;16.12;100.00;155501.88;4974836;28;20532;-78
2022/10/22 10:29:22;;;;;;;1.10;0.70;;;;;;;16.16;100.00;155512.25;4992162;28;20449;-76
2022/10/22 10:32:02;;;;;;;1.80;1.30;;;;;;;16.19;100.00;155520.03;4975009;28;20466;-76
2022/10/22 10:34:38;;;;;;;4.83;1.00;;;;;;;16.30;100.00;155548.66;4987004;28;20532;-78
2022/10/22 10:37:16;;;;;;;5.43;1.10;;;;;;;16.34;100.00;155559.06;4989947;28;20487;-77
2022/10/22 10:39:55;;;;;;;1.70;1.10;;;;;;;16.35;100.00;155562.97;4990606;28;20448;-90
2022/10/22 10:42:26;;;;;;;1.57;0.80;;;;;;;16.36;100.00;155564.28;4989313;28;20461;-89
2022/10/22 10:45:01;;;;;;;1.30;1.10;;;;;;;16.44;100.00;155586.38;4978913;28;20454;-90
2022/10/22 10:47:44;;;;;;;1.43;0.80;;;;;;;16.38;100.00;155569.47;4983587;28;20456;-90
2022/10/22 10:50:18;;;;;;;3.33;1.20;;;;;;;16.51;100.00;155603.28;4973359;28;20530;-90
2022/10/22 10:52:55;;;;;;;4.20;1.00;;;;;;;16.58;100.00;155620.22;4989792;28;21003;-89
2022/10/22 10:55:27;;;;;;;1.43;1.10;;;;;;;16.58;100.00;155621.53;4983971;28;20482;-89
2022/10/22 10:58:03;;;;;;;1.70;1.10;;;;;;;16.54;100.00;155611.16;4980355;28;20464;-90
2022/10/22 11:00:32;;;;;;;7.63;1.30;;;;;;;16.55;100.00;155613.72;4978732;28;20496;-89
2022/10/22 11:03:38;;;;;;;1.40;0.90;;;;;;;16.60;100.00;155625.47;4959395;28;20461;-90
2022/10/22 11:06:07;;;;;;;2.00;1.00;;;;;;;16.58;100.00;155621.53;4973581;28;20436;-90
2022/10/22 11:08:38;;;;;;;1.70;1.20;;;;;;;16.56;100.00;155616.34;4975719;28;20439;-90
2022/10/22 11:11:07;;;;;;;3.00;1.00;;;;;;;16.61;100.00;155629.34;4976080;28;20489;-90
2022/10/22 11:13:36;;;;;;;3.10;1.07;;;;;;;16.67;98.82;155644.97;4959122;28;20451;-90
2022/10/22 11:16:09;;;;;;;3.03;1.07;;;;;;;16.68;98.07;155647.53;4974387;28;20470;-90
2022/10/22 11:18:39;;;;;;;1.40;1.00;;;;;;;16.67;100.00;155644.97;4960980;28;20475;-90
2022/10/22 11:21:11;;;;;;;2.03;1.00;;;;;;;16.73;100.00;155660.53;4976841;28;20470;-90
2022/10/22 11:23:42;;;;;;;2.60;0.83;;;;;;;16.70;100.00;155651.47;4975022;28;20454;-90
2022/10/22 11:26:14;;;;;;;1.90;0.93;;;;;;;16.63;100.00;155634.53;4972941;28;20464;-90